sensor_id;sensor_type;location;lat;lon;timestamp;P1;durP1;ratioP1;P2;durP2;ratioP2
4957;SDS011;2494;51.872;9.688;2023-02-28T00:02:15;2.43;;;2.23;;
4957;SDS011;2494;51.872;9.688;2023-02-28T00:05:02;1.83;;;1.67;;
4957;SDS011;2494;51.872;9.688;2023-02-28T00:07:48;2.80;;;1.90;;
4957;SDS011;2494;51.872;9.688;2023-02-28T00:10:33;1.80;;;1.70;;
4957;SDS011;2494;51.872;9.688;2023-02-28T00:13:19;1.97;;;1.63;;
4957;SDS011;2494;51.872;9.688;2023-02-28T00:16:05;2.00;;;1.80;;
4957;SDS011;2494;51.872;9.688;2023-02-28T00:18:51;2.13;;;1.93;;
4957;SDS011;2494;51.872;9.688;2023-02-28T00:21:38;2.00;;;1.20;;
4957;SDS011;2494;51.872;9.688;2023-02-28T00:24:24;1.63;;;1.30;;
4957;SDS011;2494;51.872;9.688;2023-02-28T00:27:09;1.40;;;1.30;;
4957;SDS011;2494;51.872;9.688;2023-02-28T00:29:54;1.00;;;0.90;;
4957;SDS011;2494;51.872;9.688;2023-02-28T00:32:39;1.63;;;1.07;;
4957;SDS011;2494;51.872;9.688;2023-02-28T00:35:25;0.93;;;0.90;;
4957;SDS011;2494;51.872;9.688;2023-02-28T00:38:11;1.00;;;1.00;;
4957;SDS011;2494;51.872;9.688;2023-02-28T00:40:57;1.73;;;1.10;;
4957;SDS011;2494;51.872;9.688;2023-02-28T00:43:47;1.03;;;0.93;;
4957;SDS011;2494;51.872;9.688;2023-02-28T00:46:33;0.90;;;0.80;;
4957;SDS011;2494;51.872;9.688;2023-02-28T00:49:18;1.20;;;0.90;;
4957;SDS011;2494;51.872;9.688;2023-02-28T00:52:04;1.00;;;0.90;;
4957;SDS011;2494;51.872;9.688;2023-02-28T00:54:51;1.20;;;1.10;;
4957;SDS011;2494;51.872;9.688;2023-02-28T00:57:36;1.20;;;1.10;;
4957;SDS011;2494;51.872;9.688;2023-02-28T01:00:21;2.33;;;1.20;;
4957;SDS011;2494;51.872;9.688;2023-02-28T01:03:06;1.87;;;1.10;;
4957;SDS011;2494;51.872;9.688;2023-02-28T01:05:51;1.50;;;1.07;;
4957;SDS011;2494;51.872;9.688;2023-02-28T01:08:36;1.03;;;0.93;;
4957;SDS011;2494;51.872;9.688;2023-02-28T01:11:23;1.63;;;0.90;;
4957;SDS011;2494;51.872;9.688;2023-02-28T01:14:08;1.27;;;1.17;;
4957;SDS011;2494;51.872;9.688;2023-02-28T01:16:53;1.10;;;1.00;;
4957;SDS011;2494;51.872;9.688;2023-02-28T01:19:38;1.40;;;0.90;;
4957;SDS011;2494;51.872;9.688;2023-02-28T01:22:23;1.47;;;1.17;;
4957;SDS011;2494;51.872;9.688;2023-02-28T01:25:08;1.47;;;0.80;;
4957;SDS011;2494;51.872;9.688;2023-02-28T01:27:55;0.80;;;0.80;;
4957;SDS011;2494;51.872;9.688;2023-02-28T01:30:40;1.53;;;1.00;;
4957;SDS011;2494;51.872;9.688;2023-02-28T01:33:25;0.70;;;0.70;;
4957;SDS011;2494;51.872;9.688;2023-02-28T01:36:11;0.77;;;0.77;;
4957;SDS011;2494;51.872;9.688;2023-02-28T01:38:56;0.93;;;0.93;;
4957;SDS011;2494;51.872;9.688;2023-02-28T01:41:41;2.30;;;1.07;;
4957;SDS011;2494;51.872;9.688;2023-02-28T01:47:43;2.07;;;0.93;;
4957;SDS011;2494;51.872;9.688;2023-02-28T01:50:31;1.23;;;0.90;;
4957;SDS011;2494;51.872;9.688;2023-02-28T01:53:19;3.07;;;1.07;;
4957;SDS011;2494;51.872;9.688;2023-02-28T01:56:06;1.13;;;1.00;;
4957;SDS011;2494;51.872;9.688;2023-02-28T01:58:53;1.10;;;1.00;;
4957;SDS011;2494;51.872;9.688;2023-02-28T02:01:39;1.40;;;1.27;;
4957;SDS011;2494;51.872;9.688;2023-02-28T02:04:26;1.20;;;1.10;;
4957;SDS011;2494;51.872;9.688;2023-02-28T02:07:15;1.63;;;1.40;;
4957;SDS011;2494;51.872;9.688;2023-02-28T02:10:02;1.10;;;1.00;;
4957;SDS011;2494;51.872;9.688;2023-02-28T02:12:51;1.27;;;1.17;;
4957;SDS011;2494;51.872;9.688;2023-02-28T02:15:40;2.77;;;1.20;;
4957;SDS011;2494;51.872;9.688;2023-02-28T02:18:29;1.90;;;1.80;;
4957;SDS011;2494;51.872;9.688;2023-02-28T02:21:21;1.40;;;1.30;;
4957;SDS011;2494;51.872;9.688;2023-02-28T02:24:24;1.60;;;1.50;;
4957;SDS011;2494;51.872;9.688;2023-02-28T02:27:23;1.43;;;1.33;;
4957;SDS011;2494;51.872;9.688;2023-02-28T02:30:33;2.03;;;1.37;;
4957;SDS011;2494;51.872;9.688;2023-02-28T02:33:27;1.37;;;1.20;;
4957;SDS011;2494;51.872;9.688;2023-02-28T02:36:16;1.73;;;1.40;;
4957;SDS011;2494;51.872;9.688;2023-02-28T02:39:05;1.50;;;1.40;;
4957;SDS011;2494;51.872;9.688;2023-02-28T02:41:52;2.53;;;1.30;;
4957;SDS011;2494;51.872;9.688;2023-02-28T02:44:39;3.97;;;1.40;;
4957;SDS011;2494;51.872;9.688;2023-02-28T02:47:28;1.30;;;1.20;;
4957;SDS011;2494;51.872;9.688;2023-02-28T02:50:17;1.10;;;1.00;;
4957;SDS011;2494;51.872;9.688;2023-02-28T02:53:05;1.30;;;1.20;;
4957;SDS011;2494;51.872;9.688;2023-02-28T02:55:52;1.67;;;1.30;;
4957;SDS011;2494;51.872;9.688;2023-02-28T02:58:39;1.50;;;1.17;;
4957;SDS011;2494;51.872;9.688;2023-02-28T03:01:26;1.47;;;1.37;;
4957;SDS011;2494;51.872;9.688;2023-02-28T03:04:15;4.17;;;1.17;;
4957;SDS011;2494;51.872;9.688;2023-02-28T03:07:00;1.47;;;1.37;;
4957;SDS011;2494;51.872;9.688;2023-02-28T03:09:51;1.30;;;1.20;;
4957;SDS011;2494;51.872;9.688;2023-02-28T03:12:39;2.10;;;1.10;;
4957;SDS011;2494;51.872;9.688;2023-02-28T03:15:26;1.20;;;1.10;;
4957;SDS011;2494;51.872;9.688;2023-02-28T03:18:13;1.40;;;1.30;;
4957;SDS011;2494;51.872;9.688;2023-02-28T03:21:06;1.50;;;1.00;;
4957;SDS011;2494;51.872;9.688;2023-02-28T03:23:53;4.60;;;1.40;;
4957;SDS011;2494;51.872;9.688;2023-02-28T03:26:45;1.63;;;1.53;;
4957;SDS011;2494;51.872;9.688;2023-02-28T03:29:35;3.40;;;1.23;;
4957;SDS011;2494;51.872;9.688;2023-02-28T03:32:24;1.67;;;1.17;;
4957;SDS011;2494;51.872;9.688;2023-02-28T03:35:12;4.80;;;1.97;;
4957;SDS011;2494;51.872;9.688;2023-02-28T03:38:05;1.27;;;1.17;;
4957;SDS011;2494;51.872;9.688;2023-02-28T03:40:55;1.67;;;1.57;;
4957;SDS011;2494;51.872;9.688;2023-02-28T03:43:44;1.60;;;1.50;;
4957;SDS011;2494;51.872;9.688;2023-02-28T03:46:34;1.67;;;1.23;;
4957;SDS011;2494;51.872;9.688;2023-02-28T03:49:22;1.57;;;1.47;;
4957;SDS011;2494;51.872;9.688;2023-02-28T03:52:07;1.70;;;1.60;;
4957;SDS011;2494;51.872;9.688;2023-02-28T03:54:55;1.50;;;1.40;;
4957;SDS011;2494;51.872;9.688;2023-02-28T03:57:43;1.90;;;1.80;;
4957;SDS011;2494;51.872;9.688;2023-02-28T04:00:34;1.97;;;1.87;;
4957;SDS011;2494;51.872;9.688;2023-02-28T04:03:22;1.30;;;1.20;;
4957;SDS011;2494;51.872;9.688;2023-02-28T04:06:07;2.60;;;1.50;;
4957;SDS011;2494;51.872;9.688;2023-02-28T04:08:57;1.30;;;1.20;;
4957;SDS011;2494;51.872;9.688;2023-02-28T04:11:44;1.50;;;1.40;;
4957;SDS011;2494;51.872;9.688;2023-02-28T04:14:29;3.10;;;1.57;;
4957;SDS011;2494;51.872;9.688;2023-02-28T04:17:16;5.33;;;1.70;;
4957;SDS011;2494;51.872;9.688;2023-02-28T04:20:03;1.60;;;1.50;;
4957;SDS011;2494;51.872;9.688;2023-02-28T04:22:52;1.33;;;1.23;;
4957;SDS011;2494;51.872;9.688;2023-02-28T04:25:38;1.63;;;1.50;;
4957;SDS011;2494;51.872;9.688;2023-02-28T04:28:24;1.40;;;1.30;;
4957;SDS011;2494;51.872;9.688;2023-02-28T04:31:09;3.47;;;1.57;;
4957;SDS011;2494;51.872;9.688;2023-02-28T04:33:56;1.60;;;1.50;;
4957;SDS011;2494;51.872;9.688;2023-02-28T04:36:42;1.70;;;1.60;;
4957;SDS011;2494;51.872;9.688;2023-02-28T04:39:29;1.60;;;1.40;;
4957;SDS011;2494;51.872;9.688;2023-02-28T04:42:14;1.57;;;1.43;;
4957;SDS011;2494;51.872;9.688;2023-02-28T04:44:59;3.17;;;1.50;;
4957;SDS011;2494;51.872;9.688;2023-02-28T04:47:44;3.63;;;1.40;;
4957;SDS011;2494;51.872;9.688;2023-02-28T04:50:31;4.17;;;1.37;;
4957;SDS011;2494;51.872;9.688;2023-02-28T04:53:17;1.23;;;1.13;;
4957;SDS011;2494;51.872;9.688;2023-02-28T04:56:03;1.30;;;1.10;;
4957;SDS011;2494;51.872;9.688;2023-02-28T04:58:48;1.40;;;1.30;;
4957;SDS011;2494;51.872;9.688;2023-02-28T05:01:34;1.30;;;1.20;;
4957;SDS011;2494;51.872;9.688;2023-02-28T05:04:20;1.63;;;1.20;;
4957;SDS011;2494;51.872;9.688;2023-02-28T05:07:07;1.20;;;1.03;;
4957;SDS011;2494;51.872;9.688;2023-02-28T05:09:53;2.13;;;1.30;;
4957;SDS011;2494;51.872;9.688;2023-02-28T05:12:38;2.90;;;1.43;;
4957;SDS011;2494;51.872;9.688;2023-02-28T05:15:24;1.10;;;1.00;;
4957;SDS011;2494;51.872;9.688;2023-02-28T05:18:09;1.00;;;0.90;;
4957;SDS011;2494;51.872;9.688;2023-02-28T05:20:54;1.50;;;1.40;;
4957;SDS011;2494;51.872;9.688;2023-02-28T05:23:42;1.10;;;1.00;;
4957;SDS011;2494;51.872;9.688;2023-02-28T05:26:27;2.50;;;1.13;;
4957;SDS011;2494;51.872;9.688;2023-02-28T05:29:13;1.60;;;1.50;;
4957;SDS011;2494;51.872;9.688;2023-02-28T05:31:58;1.50;;;1.40;;
4957;SDS011;2494;51.872;9.688;2023-02-28T05:34:43;4.70;;;2.10;;
4957;SDS011;2494;51.872;9.688;2023-02-28T05:37:28;1.97;;;1.53;;
4957;SDS011;2494;51.872;9.688;2023-02-28T05:40:15;1.67;;;1.50;;
4957;SDS011;2494;51.872;9.688;2023-02-28T05:43:00;1.50;;;1.40;;
4957;SDS011;2494;51.872;9.688;2023-02-28T05:45:45;1.60;;;1.50;;
4957;SDS011;2494;51.872;9.688;2023-02-28T05:48:31;1.40;;;1.30;;
4957;SDS011;2494;51.872;9.688;2023-02-28T05:51:16;1.67;;;1.53;;
4957;SDS011;2494;51.872;9.688;2023-02-28T05:54:02;1.50;;;1.40;;
4957;SDS011;2494;51.872;9.688;2023-02-28T05:56:49;1.57;;;1.23;;
4957;SDS011;2494;51.872;9.688;2023-02-28T05:59:34;2.60;;;1.50;;
4957;SDS011;2494;51.872;9.688;2023-02-28T06:02:23;2.73;;;1.50;;
4957;SDS011;2494;51.872;9.688;2023-02-28T06:05:09;2.20;;;1.57;;
4957;SDS011;2494;51.872;9.688;2023-02-28T06:07:57;4.50;;;2.43;;
4957;SDS011;2494;51.872;9.688;2023-02-28T06:10:43;1.50;;;1.30;;
4957;SDS011;2494;51.872;9.688;2023-02-28T06:13:30;1.43;;;1.30;;
4957;SDS011;2494;51.872;9.688;2023-02-28T06:16:15;1.57;;;1.40;;
4957;SDS011;2494;51.872;9.688;2023-02-28T06:19:00;1.47;;;1.37;;
4957;SDS011;2494;51.872;9.688;2023-02-28T06:21:45;2.23;;;1.63;;
4957;SDS011;2494;51.872;9.688;2023-02-28T06:24:34;2.83;;;1.70;;
4957;SDS011;2494;51.872;9.688;2023-02-28T06:27:19;3.83;;;1.57;;
4957;SDS011;2494;51.872;9.688;2023-02-28T06:30:07;1.47;;;1.37;;
4957;SDS011;2494;51.872;9.688;2023-02-28T06:32:54;1.97;;;1.60;;
4957;SDS011;2494;51.872;9.688;2023-02-28T06:35:42;2.37;;;1.40;;
4957;SDS011;2494;51.872;9.688;2023-02-28T06:38:28;1.40;;;1.30;;
4957;SDS011;2494;51.872;9.688;2023-02-28T06:41:13;1.80;;;1.40;;
4957;SDS011;2494;51.872;9.688;2023-02-28T06:43:57;1.70;;;1.60;;
4957;SDS011;2494;51.872;9.688;2023-02-28T06:46:45;1.37;;;1.27;;
4957;SDS011;2494;51.872;9.688;2023-02-28T06:49:30;1.80;;;1.70;;
4957;SDS011;2494;51.872;9.688;2023-02-28T06:52:15;2.10;;;1.90;;
4957;SDS011;2494;51.872;9.688;2023-02-28T06:55:03;4.13;;;1.50;;
4957;SDS011;2494;51.872;9.688;2023-02-28T06:57:49;1.57;;;1.47;;
4957;SDS011;2494;51.872;9.688;2023-02-28T07:00:35;1.73;;;1.40;;
4957;SDS011;2494;51.872;9.688;2023-02-28T07:03:22;2.43;;;1.73;;
4957;SDS011;2494;51.872;9.688;2023-02-28T07:06:08;2.13;;;1.90;;
4957;SDS011;2494;51.872;9.688;2023-02-28T07:09:10;3.60;;;2.10;;
4957;SDS011;2494;51.872;9.688;2023-02-28T07:11:57;1.83;;;1.40;;
4957;SDS011;2494;51.872;9.688;2023-02-28T07:14:42;2.20;;;1.53;;
4957;SDS011;2494;51.872;9.688;2023-02-28T07:17:27;4.40;;;1.23;;
4957;SDS011;2494;51.872;9.688;2023-02-28T07:20:14;3.40;;;1.70;;
4957;SDS011;2494;51.872;9.688;2023-02-28T07:22:59;2.60;;;1.47;;
4957;SDS011;2494;51.872;9.688;2023-02-28T07:25:44;2.43;;;1.17;;
4957;SDS011;2494;51.872;9.688;2023-02-28T07:28:30;4.60;;;1.50;;
4957;SDS011;2494;51.872;9.688;2023-02-28T07:31:16;1.60;;;1.50;;
4957;SDS011;2494;51.872;9.688;2023-02-28T07:34:03;1.40;;;1.27;;
4957;SDS011;2494;51.872;9.688;2023-02-28T07:36:51;1.50;;;1.30;;
4957;SDS011;2494;51.872;9.688;2023-02-28T07:39:37;1.63;;;1.53;;
4957;SDS011;2494;51.872;9.688;2023-02-28T07:42:23;2.43;;;1.63;;
4957;SDS011;2494;51.872;9.688;2023-02-28T07:45:08;6.03;;;1.90;;
4957;SDS011;2494;51.872;9.688;2023-02-28T07:47:55;1.90;;;1.60;;
4957;SDS011;2494;51.872;9.688;2023-02-28T07:50:41;2.13;;;1.83;;
4957;SDS011;2494;51.872;9.688;2023-02-28T07:53:27;5.13;;;1.90;;
4957;SDS011;2494;51.872;9.688;2023-02-28T07:56:13;3.87;;;2.27;;
4957;SDS011;2494;51.872;9.688;2023-02-28T07:58:58;4.70;;;2.30;;
4957;SDS011;2494;51.872;9.688;2023-02-28T08:01:43;2.87;;;1.93;;
4957;SDS011;2494;51.872;9.688;2023-02-28T08:04:31;7.07;;;2.53;;
4957;SDS011;2494;51.872;9.688;2023-02-28T08:07:16;2.13;;;1.93;;
4957;SDS011;2494;51.872;9.688;2023-02-28T08:10:04;4.00;;;2.73;;
4957;SDS011;2494;51.872;9.688;2023-02-28T08:12:50;3.00;;;2.63;;
4957;SDS011;2494;51.872;9.688;2023-02-28T08:15:35;2.50;;;2.30;;
4957;SDS011;2494;51.872;9.688;2023-02-28T08:18:21;2.93;;;2.60;;
4957;SDS011;2494;51.872;9.688;2023-02-28T08:21:06;3.50;;;2.10;;
4957;SDS011;2494;51.872;9.688;2023-02-28T08:23:52;3.10;;;2.30;;
4957;SDS011;2494;51.872;9.688;2023-02-28T08:26:39;4.27;;;2.00;;
4957;SDS011;2494;51.872;9.688;2023-02-28T08:29:24;2.40;;;2.20;;
4957;SDS011;2494;51.872;9.688;2023-02-28T08:32:09;2.97;;;2.13;;
4957;SDS011;2494;51.872;9.688;2023-02-28T08:34:55;2.80;;;2.60;;
4957;SDS011;2494;51.872;9.688;2023-02-28T08:37:40;5.67;;;2.37;;
4957;SDS011;2494;51.872;9.688;2023-02-28T08:40:25;2.37;;;1.80;;
4957;SDS011;2494;51.872;9.688;2023-02-28T08:43:12;2.23;;;1.90;;
4957;SDS011;2494;51.872;9.688;2023-02-28T08:45:57;1.80;;;1.70;;
4957;SDS011;2494;51.872;9.688;2023-02-28T08:48:42;5.50;;;2.40;;
4957;SDS011;2494;51.872;9.688;2023-02-28T08:51:29;1.93;;;1.83;;
4957;SDS011;2494;51.872;9.688;2023-02-28T08:54:14;3.87;;;2.30;;
4957;SDS011;2494;51.872;9.688;2023-02-28T08:57:03;2.00;;;1.90;;
4957;SDS011;2494;51.872;9.688;2023-02-28T08:59:49;4.43;;;2.30;;
4957;SDS011;2494;51.872;9.688;2023-02-28T09:02:35;3.97;;;2.10;;
4957;SDS011;2494;51.872;9.688;2023-02-28T09:05:20;1.70;;;1.60;;
4957;SDS011;2494;51.872;9.688;2023-02-28T09:08:06;2.17;;;1.97;;
4957;SDS011;2494;51.872;9.688;2023-02-28T09:10:51;2.40;;;1.93;;
4957;SDS011;2494;51.872;9.688;2023-02-28T09:13:38;2.33;;;2.00;;
4957;SDS011;2494;51.872;9.688;2023-02-28T09:16:25;2.00;;;1.80;;
4957;SDS011;2494;51.872;9.688;2023-02-28T09:19:10;1.90;;;1.80;;
4957;SDS011;2494;51.872;9.688;2023-02-28T09:21:55;1.90;;;1.77;;
4957;SDS011;2494;51.872;9.688;2023-02-28T09:24:40;2.03;;;1.70;;
4957;SDS011;2494;51.872;9.688;2023-02-28T09:27:26;2.57;;;2.00;;
4957;SDS011;2494;51.872;9.688;2023-02-28T09:30:11;2.63;;;1.70;;
4957;SDS011;2494;51.872;9.688;2023-02-28T09:32:58;4.10;;;1.70;;
4957;SDS011;2494;51.872;9.688;2023-02-28T09:35:43;2.43;;;2.23;;
4957;SDS011;2494;51.872;9.688;2023-02-28T09:38:28;2.80;;;1.50;;
4957;SDS011;2494;51.872;9.688;2023-02-28T09:41:14;2.40;;;1.70;;
4957;SDS011;2494;51.872;9.688;2023-02-28T09:44:00;2.70;;;1.60;;
4957;SDS011;2494;51.872;9.688;2023-02-28T09:46:46;3.13;;;1.70;;
4957;SDS011;2494;51.872;9.688;2023-02-28T09:49:37;1.90;;;1.73;;
4957;SDS011;2494;51.872;9.688;2023-02-28T09:52:24;2.33;;;1.60;;
4957;SDS011;2494;51.872;9.688;2023-02-28T09:55:18;3.23;;;1.77;;
4957;SDS011;2494;51.872;9.688;2023-02-28T09:58:03;1.80;;;1.70;;
4957;SDS011;2494;51.872;9.688;2023-02-28T10:00:48;2.70;;;2.20;;
4957;SDS011;2494;51.872;9.688;2023-02-28T10:03:35;2.30;;;1.97;;
4957;SDS011;2494;51.872;9.688;2023-02-28T10:06:28;2.03;;;1.90;;
4957;SDS011;2494;51.872;9.688;2023-02-28T10:09:15;3.47;;;1.77;;
4957;SDS011;2494;51.872;9.688;2023-02-28T10:12:03;1.93;;;1.80;;
4957;SDS011;2494;51.872;9.688;2023-02-28T10:14:49;3.50;;;2.20;;
4957;SDS011;2494;51.872;9.688;2023-02-28T10:17:37;4.30;;;2.40;;
4957;SDS011;2494;51.872;9.688;2023-02-28T10:20:24;2.40;;;1.97;;
4957;SDS011;2494;51.872;9.688;2023-02-28T10:23:16;1.83;;;1.73;;
4957;SDS011;2494;51.872;9.688;2023-02-28T10:26:08;2.20;;;1.80;;
4957;SDS011;2494;51.872;9.688;2023-02-28T10:28:54;3.43;;;2.00;;
4957;SDS011;2494;51.872;9.688;2023-02-28T10:31:39;2.87;;;2.67;;
4957;SDS011;2494;51.872;9.688;2023-02-28T10:34:25;2.50;;;2.30;;
4957;SDS011;2494;51.872;9.688;2023-02-28T10:37:10;1.90;;;1.80;;
4957;SDS011;2494;51.872;9.688;2023-02-28T10:39:58;3.23;;;2.90;;
4957;SDS011;2494;51.872;9.688;2023-02-28T10:42:54;4.93;;;3.63;;
4957;SDS011;2494;51.872;9.688;2023-02-28T10:45:51;2.27;;;2.17;;
4957;SDS011;2494;51.872;9.688;2023-02-28T10:48:38;3.80;;;2.23;;
4957;SDS011;2494;51.872;9.688;2023-02-28T10:51:24;4.30;;;3.10;;
4957;SDS011;2494;51.872;9.688;2023-02-28T10:54:14;3.77;;;3.47;;
4957;SDS011;2494;51.872;9.688;2023-02-28T10:57:19;2.93;;;2.73;;
4957;SDS011;2494;51.872;9.688;2023-02-28T11:00:08;7.43;;;2.20;;
4957;SDS011;2494;51.872;9.688;2023-02-28T11:02:57;2.27;;;2.07;;
4957;SDS011;2494;51.872;9.688;2023-02-28T11:05:42;5.53;;;2.23;;
4957;SDS011;2494;51.872;9.688;2023-02-28T11:08:28;8.30;;;3.53;;
4957;SDS011;2494;51.872;9.688;2023-02-28T11:11:13;2.03;;;1.83;;
4957;SDS011;2494;51.872;9.688;2023-02-28T11:14:04;3.80;;;2.70;;
4957;SDS011;2494;51.872;9.688;2023-02-28T11:16:52;2.40;;;1.90;;
4957;SDS011;2494;51.872;9.688;2023-02-28T11:19:45;3.37;;;2.17;;
4957;SDS011;2494;51.872;9.688;2023-02-28T11:22:31;3.17;;;2.30;;
4957;SDS011;2494;51.872;9.688;2023-02-28T11:25:21;2.73;;;2.53;;
4957;SDS011;2494;51.872;9.688;2023-02-28T11:28:22;2.27;;;1.90;;
4957;SDS011;2494;51.872;9.688;2023-02-28T11:31:16;2.80;;;2.10;;
4957;SDS011;2494;51.872;9.688;2023-02-28T11:34:10;2.70;;;1.93;;
4957;SDS011;2494;51.872;9.688;2023-02-28T11:37:09;2.17;;;1.70;;
4957;SDS011;2494;51.872;9.688;2023-02-28T11:39:55;2.30;;;2.10;;
4957;SDS011;2494;51.872;9.688;2023-02-28T11:42:45;2.50;;;2.07;;
4957;SDS011;2494;51.872;9.688;2023-02-28T11:45:43;3.30;;;3.00;;
4957;SDS011;2494;51.872;9.688;2023-02-28T11:48:33;2.20;;;2.10;;
4957;SDS011;2494;51.872;9.688;2023-02-28T11:51:23;4.07;;;2.20;;
4957;SDS011;2494;51.872;9.688;2023-02-28T11:57:17;5.07;;;2.10;;
4957;SDS011;2494;51.872;9.688;2023-02-28T12:00:11;1.90;;;1.80;;
4957;SDS011;2494;51.872;9.688;2023-02-28T12:03:06;2.60;;;2.33;;
4957;SDS011;2494;51.872;9.688;2023-02-28T12:06:00;2.20;;;2.10;;
4957;SDS011;2494;51.872;9.688;2023-02-28T12:08:59;1.83;;;1.63;;
4957;SDS011;2494;51.872;9.688;2023-02-28T12:11:48;2.10;;;1.90;;
4957;SDS011;2494;51.872;9.688;2023-02-28T12:14:41;2.77;;;1.50;;
4957;SDS011;2494;51.872;9.688;2023-02-28T12:17:33;1.97;;;1.67;;
4957;SDS011;2494;51.872;9.688;2023-02-28T12:20:25;2.00;;;1.90;;
4957;SDS011;2494;51.872;9.688;2023-02-28T12:26:17;2.00;;;1.90;;
4957;SDS011;2494;51.872;9.688;2023-02-28T12:29:09;1.83;;;1.60;;
4957;SDS011;2494;51.872;9.688;2023-02-28T12:31:59;2.43;;;2.23;;
4957;SDS011;2494;51.872;9.688;2023-02-28T12:35:01;2.90;;;2.00;;
4957;SDS011;2494;51.872;9.688;2023-02-28T12:37:49;1.73;;;1.50;;
4957;SDS011;2494;51.872;9.688;2023-02-28T12:40:42;2.20;;;2.00;;
4957;SDS011;2494;51.872;9.688;2023-02-28T12:43:31;4.87;;;2.20;;
4957;SDS011;2494;51.872;9.688;2023-02-28T12:46:19;2.03;;;1.60;;
4957;SDS011;2494;51.872;9.688;2023-02-28T12:49:08;2.03;;;1.83;;
4957;SDS011;2494;51.872;9.688;2023-02-28T12:51:55;1.90;;;1.63;;
4957;SDS011;2494;51.872;9.688;2023-02-28T12:54:42;2.70;;;1.73;;
4957;SDS011;2494;51.872;9.688;2023-02-28T12:57:32;2.03;;;1.83;;
4957;SDS011;2494;51.872;9.688;2023-02-28T13:00:25;1.73;;;1.63;;
4957;SDS011;2494;51.872;9.688;2023-02-28T13:03:33;1.60;;;1.50;;
4957;SDS011;2494;51.872;9.688;2023-02-28T13:06:38;1.93;;;1.80;;
4957;SDS011;2494;51.872;9.688;2023-02-28T13:09:26;2.30;;;2.10;;
4957;SDS011;2494;51.872;9.688;2023-02-28T13:12:13;2.60;;;2.07;;
4957;SDS011;2494;51.872;9.688;2023-02-28T13:15:04;2.30;;;2.10;;
4957;SDS011;2494;51.872;9.688;2023-02-28T13:18:20;2.03;;;1.87;;
4957;SDS011;2494;51.872;9.688;2023-02-28T13:21:21;2.17;;;1.90;;
4957;SDS011;2494;51.872;9.688;2023-02-28T13:24:07;2.30;;;2.03;;
4957;SDS011;2494;51.872;9.688;2023-02-28T13:33:23;3.70;;;1.90;;
4957;SDS011;2494;51.872;9.688;2023-02-28T13:36:09;3.00;;;2.80;;
4957;SDS011;2494;51.872;9.688;2023-02-28T13:38:55;2.27;;;2.00;;
4957;SDS011;2494;51.872;9.688;2023-02-28T13:41:45;2.60;;;2.40;;
4957;SDS011;2494;51.872;9.688;2023-02-28T13:44:30;2.67;;;2.53;;
4957;SDS011;2494;51.872;9.688;2023-02-28T13:47:36;2.60;;;2.40;;
4957;SDS011;2494;51.872;9.688;2023-02-28T13:50:24;2.43;;;2.23;;
4957;SDS011;2494;51.872;9.688;2023-02-28T13:53:27;2.43;;;2.23;;
4957;SDS011;2494;51.872;9.688;2023-02-28T13:56:21;2.93;;;2.73;;
4957;SDS011;2494;51.872;9.688;2023-02-28T13:59:14;2.60;;;2.40;;
4957;SDS011;2494;51.872;9.688;2023-02-28T14:02:03;2.83;;;2.63;;
4957;SDS011;2494;51.872;9.688;2023-02-28T14:05:00;3.40;;;2.63;;
4957;SDS011;2494;51.872;9.688;2023-02-28T14:07:47;2.83;;;2.63;;
4957;SDS011;2494;51.872;9.688;2023-02-28T14:10:35;4.83;;;2.73;;
4957;SDS011;2494;51.872;9.688;2023-02-28T14:16:28;3.00;;;2.80;;
4957;SDS011;2494;51.872;9.688;2023-02-28T14:19:21;3.27;;;2.80;;
4957;SDS011;2494;51.872;9.688;2023-02-28T14:22:10;3.60;;;3.30;;
4957;SDS011;2494;51.872;9.688;2023-02-28T14:25:08;2.83;;;2.63;;
4957;SDS011;2494;51.872;9.688;2023-02-28T14:27:57;3.83;;;2.70;;
4957;SDS011;2494;51.872;9.688;2023-02-28T14:30:51;4.10;;;3.10;;
4957;SDS011;2494;51.872;9.688;2023-02-28T14:33:57;3.30;;;3.10;;
4957;SDS011;2494;51.872;9.688;2023-02-28T14:36:47;2.93;;;2.40;;
4957;SDS011;2494;51.872;9.688;2023-02-28T14:39:33;3.07;;;2.73;;
4957;SDS011;2494;51.872;9.688;2023-02-28T14:42:30;2.90;;;2.60;;
4957;SDS011;2494;51.872;9.688;2023-02-28T14:45:18;3.00;;;2.80;;
4957;SDS011;2494;51.872;9.688;2023-02-28T14:48:04;3.03;;;2.80;;
4957;SDS011;2494;51.872;9.688;2023-02-28T14:50:54;3.40;;;3.10;;
4957;SDS011;2494;51.872;9.688;2023-02-28T14:53:40;5.37;;;3.00;;
4957;SDS011;2494;51.872;9.688;2023-02-28T14:56:26;3.23;;;2.93;;
4957;SDS011;2494;51.872;9.688;2023-02-28T14:59:25;3.17;;;2.77;;
4957;SDS011;2494;51.872;9.688;2023-02-28T15:02:15;2.97;;;2.77;;
4957;SDS011;2494;51.872;9.688;2023-02-28T15:05:02;5.60;;;3.03;;
4957;SDS011;2494;51.872;9.688;2023-02-28T15:08:02;2.90;;;2.70;;
4957;SDS011;2494;51.872;9.688;2023-02-28T15:10:52;3.20;;;2.90;;
4957;SDS011;2494;51.872;9.688;2023-02-28T15:13:39;2.90;;;2.70;;
4957;SDS011;2494;51.872;9.688;2023-02-28T15:16:28;3.10;;;2.90;;
4957;SDS011;2494;51.872;9.688;2023-02-28T15:19:17;2.97;;;2.73;;
4957;SDS011;2494;51.872;9.688;2023-02-28T15:22:05;3.13;;;2.87;;
4957;SDS011;2494;51.872;9.688;2023-02-28T15:24:51;3.07;;;2.87;;
4957;SDS011;2494;51.872;9.688;2023-02-28T15:27:39;2.90;;;2.70;;
4957;SDS011;2494;51.872;9.688;2023-02-28T15:30:27;4.17;;;2.77;;
4957;SDS011;2494;51.872;9.688;2023-02-28T15:33:19;2.57;;;2.43;;
4957;SDS011;2494;51.872;9.688;2023-02-28T15:36:06;3.17;;;2.87;;
4957;SDS011;2494;51.872;9.688;2023-02-28T15:38:52;3.33;;;3.03;;
4957;SDS011;2494;51.872;9.688;2023-02-28T15:41:39;3.13;;;2.87;;
4957;SDS011;2494;51.872;9.688;2023-02-28T15:44:25;3.77;;;3.47;;
4957;SDS011;2494;51.872;9.688;2023-02-28T15:47:14;3.40;;;3.00;;
4957;SDS011;2494;51.872;9.688;2023-02-28T15:50:04;3.20;;;2.80;;
4957;SDS011;2494;51.872;9.688;2023-02-28T15:52:50;3.40;;;3.10;;
4957;SDS011;2494;51.872;9.688;2023-02-28T15:55:36;3.47;;;3.17;;
4957;SDS011;2494;51.872;9.688;2023-02-28T15:58:21;4.37;;;4.00;;
4957;SDS011;2494;51.872;9.688;2023-02-28T16:01:15;3.20;;;3.00;;
4957;SDS011;2494;51.872;9.688;2023-02-28T16:04:01;4.67;;;3.03;;
4957;SDS011;2494;51.872;9.688;2023-02-28T16:06:53;4.03;;;3.73;;
4957;SDS011;2494;51.872;9.688;2023-02-28T16:09:45;3.80;;;3.40;;
4957;SDS011;2494;51.872;9.688;2023-02-28T16:12:31;3.60;;;3.40;;
4957;SDS011;2494;51.872;9.688;2023-02-28T16:15:18;3.90;;;3.60;;
4957;SDS011;2494;51.872;9.688;2023-02-28T16:18:03;4.17;;;3.87;;
4957;SDS011;2494;51.872;9.688;2023-02-28T16:20:48;4.23;;;3.83;;
4957;SDS011;2494;51.872;9.688;2023-02-28T16:23:34;5.70;;;3.50;;
4957;SDS011;2494;51.872;9.688;2023-02-28T16:26:21;5.03;;;3.77;;
4957;SDS011;2494;51.872;9.688;2023-02-28T16:29:08;4.40;;;3.97;;
4957;SDS011;2494;51.872;9.688;2023-02-28T16:31:54;3.73;;;3.43;;
4957;SDS011;2494;51.872;9.688;2023-02-28T16:34:39;3.60;;;3.30;;
4957;SDS011;2494;51.872;9.688;2023-02-28T16:37:26;3.37;;;3.17;;
4957;SDS011;2494;51.872;9.688;2023-02-28T16:40:15;4.73;;;3.97;;
4957;SDS011;2494;51.872;9.688;2023-02-28T16:43:01;3.87;;;3.67;;
4957;SDS011;2494;51.872;9.688;2023-02-28T16:45:50;3.50;;;3.20;;
4957;SDS011;2494;51.872;9.688;2023-02-28T16:48:39;3.80;;;3.50;;
4957;SDS011;2494;51.872;9.688;2023-02-28T16:51:25;3.40;;;3.20;;
4957;SDS011;2494;51.872;9.688;2023-02-28T16:54:10;3.73;;;3.43;;
4957;SDS011;2494;51.872;9.688;2023-02-28T16:56:58;3.87;;;3.57;;
4957;SDS011;2494;51.872;9.688;2023-02-28T16:59:43;3.40;;;3.10;;
4957;SDS011;2494;51.872;9.688;2023-02-28T17:02:29;3.47;;;3.27;;
4957;SDS011;2494;51.872;9.688;2023-02-28T17:05:14;4.20;;;3.80;;
4957;SDS011;2494;51.872;9.688;2023-02-28T17:08:00;3.63;;;3.27;;
4957;SDS011;2494;51.872;9.688;2023-02-28T17:10:45;4.00;;;3.53;;
4957;SDS011;2494;51.872;9.688;2023-02-28T17:13:32;4.10;;;3.47;;
4957;SDS011;2494;51.872;9.688;2023-02-28T17:16:20;3.83;;;3.50;;
4957;SDS011;2494;51.872;9.688;2023-02-28T17:19:09;3.40;;;3.10;;
4957;SDS011;2494;51.872;9.688;2023-02-28T17:21:55;4.63;;;3.13;;
4957;SDS011;2494;51.872;9.688;2023-02-28T17:24:40;4.10;;;2.90;;
4957;SDS011;2494;51.872;9.688;2023-02-28T17:27:26;5.00;;;3.93;;
4957;SDS011;2494;51.872;9.688;2023-02-28T17:30:15;3.00;;;2.70;;
4957;SDS011;2494;51.872;9.688;2023-02-28T17:33:01;3.10;;;2.90;;
4957;SDS011;2494;51.872;9.688;2023-02-28T17:35:46;3.33;;;3.10;;
4957;SDS011;2494;51.872;9.688;2023-02-28T17:38:32;4.10;;;3.70;;
4957;SDS011;2494;51.872;9.688;2023-02-28T17:41:17;4.10;;;3.67;;
4957;SDS011;2494;51.872;9.688;2023-02-28T17:44:02;4.13;;;3.77;;